sensor_id;sensor_type;location;lat;lon;timestamp;temperature;humidity
27978;DHT22;15314;49.248;6.968;2023-04-19T00:00:26;9.90;97.40
27978;DHT22;15314;49.248;6.968;2023-04-19T00:01:27;9.90;97.30
27978;DHT22;15314;49.248;6.968;2023-04-19T00:02:28;9.90;97.30
27978;DHT22;15314;49.248;6.968;2023-04-19T00:03:29;9.90;97.40
27978;DHT22;15314;49.248;6.968;2023-04-19T00:04:30;9.90;97.40
27978;DHT22;15314;49.248;6.968;2023-04-19T00:05:32;9.90;97.40
27978;DHT22;15314;49.248;6.968;2023-04-19T00:06:33;9.90;97.30
27978;DHT22;15314;49.248;6.968;2023-04-19T00:07:34;10.00;97.30
27978;DHT22;15314;49.248;6.968;2023-04-19T00:08:35;10.00;97.30
27978;DHT22;15314;49.248;6.968;2023-04-19T00:09:36;10.00;97.20
27978;DHT22;15314;49.248;6.968;2023-04-19T00:10:37;10.00;97.20
27978;DHT22;15314;49.248;6.968;2023-04-19T00:11:39;10.00;97.20
27978;DHT22;15314;49.248;6.968;2023-04-19T00:12:40;10.10;97.20
27978;DHT22;15314;49.248;6.968;2023-04-19T00:13:41;10.10;97.30
27978;DHT22;15314;49.248;6.968;2023-04-19T00:14:41;10.00;97.20
27978;DHT22;15314;49.248;6.968;2023-04-19T00:15:42;10.00;97.20
27978;DHT22;15314;49.248;6.968;2023-04-19T00:16:42;10.00;97.30
27978;DHT22;15314;49.248;6.968;2023-04-19T00:17:43;10.00;97.40
27978;DHT22;15314;49.248;6.968;2023-04-19T00:18:44;10.00;97.40
27978;DHT22;15314;49.248;6.968;2023-04-19T00:19:46;10.00;97.30
27978;DHT22;15314;49.248;6.968;2023-04-19T00:20:47;10.00;97.30
27978;DHT22;15314;49.248;6.968;2023-04-19T00:21:48;10.00;97.40
27978;DHT22;15314;49.248;6.968;2023-04-19T00:22:48;10.00;97.60
27978;DHT22;15314;49.248;6.968;2023-04-19T00:23:50;9.90;97.60
27978;DHT22;15314;49.248;6.968;2023-04-19T00:24:52;9.90;97.70
27978;DHT22;15314;49.248;6.968;2023-04-19T00:25:53;10.00;97.70
27978;DHT22;15314;49.248;6.968;2023-04-19T00:26:53;9.90;97.70
27978;DHT22;15314;49.248;6.968;2023-04-19T00:27:54;9.90;97.80
27978;DHT22;15314;49.248;6.968;2023-04-19T00:28:55;9.90;97.90
27978;DHT22;15314;49.248;6.968;2023-04-19T00:29:56;9.90;97.90
27978;DHT22;15314;49.248;6.968;2023-04-19T00:30:57;9.90;98.00
27978;DHT22;15314;49.248;6.968;2023-04-19T00:31:57;9.90;97.90
27978;DHT22;15314;49.248;6.968;2023-04-19T00:32:58;9.90;97.90
27978;DHT22;15314;49.248;6.968;2023-04-19T00:33:59;10.00;97.90
27978;DHT22;15314;49.248;6.968;2023-04-19T00:34:59;10.00;97.80
27978;DHT22;15314;49.248;6.968;2023-04-19T00:36:00;10.00;97.70
27978;DHT22;15314;49.248;6.968;2023-04-19T00:37:01;10.10;97.80
27978;DHT22;15314;49.248;6.968;2023-04-19T00:38:03;10.10;97.80
27978;DHT22;15314;49.248;6.968;2023-04-19T00:39:04;10.10;97.60
27978;DHT22;15314;49.248;6.968;2023-04-19T00:40:05;10.10;97.60
27978;DHT22;15314;49.248;6.968;2023-04-19T00:41:06;10.20;97.60
27978;DHT22;15314;49.248;6.968;2023-04-19T00:42:07;10.20;97.60
27978;DHT22;15314;49.248;6.968;2023-04-19T00:43:08;10.20;97.60
27978;DHT22;15314;49.248;6.968;2023-04-19T00:44:08;10.30;97.60
27978;DHT22;15314;49.248;6.968;2023-04-19T00:45:10;10.20;97.70
27978;DHT22;15314;49.248;6.968;2023-04-19T00:46:10;10.20;97.70
27978;DHT22;15314;49.248;6.968;2023-04-19T00:47:13;10.20;97.70
27978;DHT22;15314;49.248;6.968;2023-04-19T00:48:14;10.20;97.60
27978;DHT22;15314;49.248;6.968;2023-04-19T00:49:16;10.20;97.70
27978;DHT22;15314;49.248;6.968;2023-04-19T00:50:17;10.20;97.80
27978;DHT22;15314;49.248;6.968;2023-04-19T00:51:18;10.20;97.70
27978;DHT22;15314;49.248;6.968;2023-04-19T00:52:21;10.20;97.70
27978;DHT22;15314;49.248;6.968;2023-04-19T00:53:21;10.20;97.60
27978;DHT22;15314;49.248;6.968;2023-04-19T00:54:22;10.20;97.70
27978;DHT22;15314;49.248;6.968;2023-04-19T00:55:24;10.20;97.80
27978;DHT22;15314;49.248;6.968;2023-04-19T00:56:26;10.30;97.80
27978;DHT22;15314;49.248;6.968;2023-04-19T00:57:28;10.20;97.90
27978;DHT22;15314;49.248;6.968;2023-04-19T00:58:29;10.20;97.70
27978;DHT22;15314;49.248;6.968;2023-04-19T00:59:32;10.30;97.80
27978;DHT22;15314;49.248;6.968;2023-04-19T01:00:34;10.30;97.70
27978;DHT22;15314;49.248;6.968;2023-04-19T01:01:35;10.30;97.80
27978;DHT22;15314;49.248;6.968;2023-04-19T01:02:37;10.30;97.90
27978;DHT22;15314;49.248;6.968;2023-04-19T01:03:38;10.30;97.90
27978;DHT22;15314;49.248;6.968;2023-04-19T01:04:38;10.20;97.90
27978;DHT22;15314;49.248;6.968;2023-04-19T01:05:39;10.20;97.80
27978;DHT22;15314;49.248;6.968;2023-04-19T01:06:40;10.20;97.80
27978;DHT22;15314;49.248;6.968;2023-04-19T01:07:42;10.20;97.80
27978;DHT22;15314;49.248;6.968;2023-04-19T01:08:43;10.30;97.90
27978;DHT22;15314;49.248;6.968;2023-04-19T01:09:44;10.30;97.70
27978;DHT22;15314;49.248;6.968;2023-04-19T01:10:45;10.30;97.80
27978;DHT22;15314;49.248;6.968;2023-04-19T01:11:45;10.30;97.90
27978;DHT22;15314;49.248;6.968;2023-04-19T01:12:46;10.30;97.90
27978;DHT22;15314;49.248;6.968;2023-04-19T01:13:47;10.40;97.70
27978;DHT22;15314;49.248;6.968;2023-04-19T01:14:48;10.30;97.60
27978;DHT22;15314;49.248;6.968;2023-04-19T01:15:49;10.40;97.50
27978;DHT22;15314;49.248;6.968;2023-04-19T01:16:50;10.40;97.60
27978;DHT22;15314;49.248;6.968;2023-04-19T01:17:52;10.40;97.70
27978;DHT22;15314;49.248;6.968;2023-04-19T01:18:53;10.50;97.50
27978;DHT22;15314;49.248;6.968;2023-04-19T01:20:01;10.40;97.50
27978;DHT22;15314;49.248;6.968;2023-04-19T01:21:06;10.50;97.50
27978;DHT22;15314;49.248;6.968;2023-04-19T01:22:06;10.50;97.30
27978;DHT22;15314;49.248;6.968;2023-04-19T01:23:07;10.50;97.30
27978;DHT22;15314;49.248;6.968;2023-04-19T01:24:10;10.50;97.30
27978;DHT22;15314;49.248;6.968;2023-04-19T01:25:11;10.50;97.30
27978;DHT22;15314;49.248;6.968;2023-04-19T01:26:12;10.50;97.30
27978;DHT22;15314;49.248;6.968;2023-04-19T01:27:13;10.50;97.50
27978;DHT22;15314;49.248;6.968;2023-04-19T01:28:13;10.50;97.50
27978;DHT22;15314;49.248;6.968;2023-04-19T01:29:14;10.50;97.60
27978;DHT22;15314;49.248;6.968;2023-04-19T01:30:15;10.50;97.60
27978;DHT22;15314;49.248;6.968;2023-04-19T01:31:15;10.50;97.30
27978;DHT22;15314;49.248;6.968;2023-04-19T01:32:16;10.50;97.50
27978;DHT22;15314;49.248;6.968;2023-04-19T01:33:17;10.50;97.40
27978;DHT22;15314;49.248;6.968;2023-04-19T01:34:18;10.50;97.50
27978;DHT22;15314;49.248;6.968;2023-04-19T01:35:19;10.40;97.50
27978;DHT22;15314;49.248;6.968;2023-04-19T01:36:20;10.40;97.60
27978;DHT22;15314;49.248;6.968;2023-04-19T01:37:21;10.40;97.50
27978;DHT22;15314;49.248;6.968;2023-04-19T01:38:22;10.40;97.60
27978;DHT22;15314;49.248;6.968;2023-04-19T01:39:24;10.50;97.50
27978;DHT22;15314;49.248;6.968;2023-04-19T01:40:25;10.50;97.40
27978;DHT22;15314;49.248;6.968;2023-04-19T01:41:26;10.50;97.40
27978;DHT22;15314;49.248;6.968;2023-04-19T01:42:29;10.50;97.40
27978;DHT22;15314;49.248;6.968;2023-04-19T01:43:29;10.50;97.50
27978;DHT22;15314;49.248;6.968;2023-04-19T01:44:30;10.50;97.40
27978;DHT22;15314;49.248;6.968;2023-04-19T01:45:31;10.50;97.30
27978;DHT22;15314;49.248;6.968;2023-04-19T01:46:33;10.50;97.20
27978;DHT22;15314;49.248;6.968;2023-04-19T01:47:35;10.50;97.30
27978;DHT22;15314;49.248;6.968;2023-04-19T01:48:36;10.50;97.40
27978;DHT22;15314;49.248;6.968;2023-04-19T01:49:37;10.50;97.40
27978;DHT22;15314;49.248;6.968;2023-04-19T01:50:37;10.40;97.50
27978;DHT22;15314;49.248;6.968;2023-04-19T01:51:38;10.50;97.50
27978;DHT22;15314;49.248;6.968;2023-04-19T01:52:39;10.40;97.40
27978;DHT22;15314;49.248;6.968;2023-04-19T01:53:39;10.40;97.40
27978;DHT22;15314;49.248;6.968;2023-04-19T01:54:40;10.40;97.40
27978;DHT22;15314;49.248;6.968;2023-04-19T01:55:41;10.50;97.50
27978;DHT22;15314;49.248;6.968;2023-04-19T01:56:42;10.50;97.30
27978;DHT22;15314;49.248;6.968;2023-04-19T01:57:43;10.50;97.40
27978;DHT22;15314;49.248;6.968;2023-04-19T01:58:44;10.40;97.20
27978;DHT22;15314;49.248;6.968;2023-04-19T01:59:44;10.50;97.30
27978;DHT22;15314;49.248;6.968;2023-04-19T02:00:45;10.50;97.20
27978;DHT22;15314;49.248;6.968;2023-04-19T02:01:46;10.60;97.20
27978;DHT22;15314;49.248;6.968;2023-04-19T02:02:47;10.60;97.00
27978;DHT22;15314;49.248;6.968;2023-04-19T02:03:47;10.60;97.20
27978;DHT22;15314;49.248;6.968;2023-04-19T02:04:48;10.60;97.10
27978;DHT22;15314;49.248;6.968;2023-04-19T02:05:49;10.50;97.10
27978;DHT22;15314;49.248;6.968;2023-04-19T02:06:49;10.60;97.20
27978;DHT22;15314;49.248;6.968;2023-04-19T02:07:50;10.50;97.10
27978;DHT22;15314;49.248;6.968;2023-04-19T02:08:51;10.60;97.20
27978;DHT22;15314;49.248;6.968;2023-04-19T02:09:51;10.60;97.00
27978;DHT22;15314;49.248;6.968;2023-04-19T02:10:52;10.60;96.80
27978;DHT22;15314;49.248;6.968;2023-04-19T02:11:53;10.70;96.90
27978;DHT22;15314;49.248;6.968;2023-04-19T02:12:53;10.60;96.70
27978;DHT22;15314;49.248;6.968;2023-04-19T02:13:54;10.60;96.80
27978;DHT22;15314;49.248;6.968;2023-04-19T02:14:59;10.60;97.00
27978;DHT22;15314;49.248;6.968;2023-04-19T02:16:02;10.50;97.00
27978;DHT22;15314;49.248;6.968;2023-04-19T02:17:02;10.60;97.10
27978;DHT22;15314;49.248;6.968;2023-04-19T02:18:03;10.50;97.10
27978;DHT22;15314;49.248;6.968;2023-04-19T02:19:06;10.50;97.10
27978;DHT22;15314;49.248;6.968;2023-04-19T02:20:07;10.60;97.20
27978;DHT22;15314;49.248;6.968;2023-04-19T02:21:09;10.60;97.00
27978;DHT22;15314;49.248;6.968;2023-04-19T02:22:10;10.60;96.90
27978;DHT22;15314;49.248;6.968;2023-04-19T02:23:11;10.60;96.90
27978;DHT22;15314;49.248;6.968;2023-04-19T02:24:12;10.60;96.90
27978;DHT22;15314;49.248;6.968;2023-04-19T02:25:12;10.60;97.00
27978;DHT22;15314;49.248;6.968;2023-04-19T02:26:13;10.60;96.80
27978;DHT22;15314;49.248;6.968;2023-04-19T02:27:14;10.60;96.90
27978;DHT22;15314;49.248;6.968;2023-04-19T02:28:15;10.60;96.80
27978;DHT22;15314;49.248;6.968;2023-04-19T02:29:15;10.60;96.80
27978;DHT22;15314;49.248;6.968;2023-04-19T02:30:16;10.60;96.90
27978;DHT22;15314;49.248;6.968;2023-04-19T02:31:17;10.60;97.00
27978;DHT22;15314;49.248;6.968;2023-04-19T02:32:18;10.60;96.90
27978;DHT22;15314;49.248;6.968;2023-04-19T02:33:18;10.60;97.00
27978;DHT22;15314;49.248;6.968;2023-04-19T02:34:21;10.60;96.90
27978;DHT22;15314;49.248;6.968;2023-04-19T02:35:21;10.50;97.00
27978;DHT22;15314;49.248;6.968;2023-04-19T02:36:22;10.50;97.00
27978;DHT22;15314;49.248;6.968;2023-04-19T02:37:23;10.50;97.00
27978;DHT22;15314;49.248;6.968;2023-04-19T02:38:23;10.40;97.10
27978;DHT22;15314;49.248;6.968;2023-04-19T02:39:24;10.50;97.20
27978;DHT22;15314;49.248;6.968;2023-04-19T02:40:25;10.50;97.30
27978;DHT22;15314;49.248;6.968;2023-04-19T02:41:25;10.50;97.10
27978;DHT22;15314;49.248;6.968;2023-04-19T02:42:26;10.50;97.00
27978;DHT22;15314;49.248;6.968;2023-04-19T02:43:27;10.40;97.00
27978;DHT22;15314;49.248;6.968;2023-04-19T02:44:27;10.40;97.20
27978;DHT22;15314;49.248;6.968;2023-04-19T02:45:28;10.40;97.20
27978;DHT22;15314;49.248;6.968;2023-04-19T02:46:29;10.40;97.40
27978;DHT22;15314;49.248;6.968;2023-04-19T02:47:29;10.30;97.30
27978;DHT22;15314;49.248;6.968;2023-04-19T02:48:33;10.40;97.30
27978;DHT22;15314;49.248;6.968;2023-04-19T02:49:34;10.30;97.40
27978;DHT22;15314;49.248;6.968;2023-04-19T02:50:37;10.30;97.30
27978;DHT22;15314;49.248;6.968;2023-04-19T02:51:38;10.30;97.40
27978;DHT22;15314;49.248;6.968;2023-04-19T02:52:39;10.30;97.50
27978;DHT22;15314;49.248;6.968;2023-04-19T02:53:39;10.30;97.20
27978;DHT22;15314;49.248;6.968;2023-04-19T02:54:40;10.30;97.20
27978;DHT22;15314;49.248;6.968;2023-04-19T02:55:41;10.30;97.30
27978;DHT22;15314;49.248;6.968;2023-04-19T02:56:42;10.30;97.30
27978;DHT22;15314;49.248;6.968;2023-04-19T02:57:42;10.30;97.20
27978;DHT22;15314;49.248;6.968;2023-04-19T02:58:43;10.30;97.20
27978;DHT22;15314;49.248;6.968;2023-04-19T02:59:44;10.30;97.20
27978;DHT22;15314;49.248;6.968;2023-04-19T03:00:45;10.30;97.50
27978;DHT22;15314;49.248;6.968;2023-04-19T03:01:46;10.20;97.50
27978;DHT22;15314;49.248;6.968;2023-04-19T03:02:46;10.20;97.50
27978;DHT22;15314;49.248;6.968;2023-04-19T03:03:47;10.20;97.50
27978;DHT22;15314;49.248;6.968;2023-04-19T03:04:48;10.10;97.70
27978;DHT22;15314;49.248;6.968;2023-04-19T03:05:48;10.10;97.80
27978;DHT22;15314;49.248;6.968;2023-04-19T03:06:50;10.10;98.00
27978;DHT22;15314;49.248;6.968;2023-04-19T03:07:51;10.10;97.80
27978;DHT22;15314;49.248;6.968;2023-04-19T03:08:52;10.10;97.70
27978;DHT22;15314;49.248;6.968;2023-04-19T03:09:52;10.10;97.80
27978;DHT22;15314;49.248;6.968;2023-04-19T03:10:53;10.10;97.70
27978;DHT22;15314;49.248;6.968;2023-04-19T03:11:54;10.10;97.80
27978;DHT22;15314;49.248;6.968;2023-04-19T03:12:55;10.10;97.80
27978;DHT22;15314;49.248;6.968;2023-04-19T03:13:55;10.10;97.90
27978;DHT22;15314;49.248;6.968;2023-04-19T03:14:56;10.10;97.80
27978;DHT22;15314;49.248;6.968;2023-04-19T03:15:56;10.10;97.90
27978;DHT22;15314;49.248;6.968;2023-04-19T03:16:57;10.10;97.90
27978;DHT22;15314;49.248;6.968;2023-04-19T03:17:58;10.10;97.80
27978;DHT22;15314;49.248;6.968;2023-04-19T03:18:58;10.10;97.90
27978;DHT22;15314;49.248;6.968;2023-04-19T03:19:59;10.10;98.00
27978;DHT22;15314;49.248;6.968;2023-04-19T03:21:00;10.10;97.90
27978;DHT22;15314;49.248;6.968;2023-04-19T03:22:00;10.10;97.90
27978;DHT22;15314;49.248;6.968;2023-04-19T03:23:01;10.10;97.90
27978;DHT22;15314;49.248;6.968;2023-04-19T03:24:02;10.00;98.00
27978;DHT22;15314;49.248;6.968;2023-04-19T03:25:03;10.00;97.90
27978;DHT22;15314;49.248;6.968;2023-04-19T03:26:04;10.00;98.10
27978;DHT22;15314;49.248;6.968;2023-04-19T03:27:04;10.00;98.00
27978;DHT22;15314;49.248;6.968;2023-04-19T03:28:05;9.90;98.00
27978;DHT22;15314;49.248;6.968;2023-04-19T03:29:06;9.90;98.30
27978;DHT22;15314;49.248;6.968;2023-04-19T03:30:07;9.80;98.40
27978;DHT22;15314;49.248;6.968;2023-04-19T03:31:08;9.70;98.30
27978;DHT22;15314;49.248;6.968;2023-04-19T03:32:08;9.70;98.40
27978;DHT22;15314;49.248;6.968;2023-04-19T03:33:09;9.70;98.60
27978;DHT22;15314;49.248;6.968;2023-04-19T03:34:09;9.60;98.60
27978;DHT22;15314;49.248;6.968;2023-04-19T03:35:10;9.60;98.90
27978;DHT22;15314;49.248;6.968;2023-04-19T03:36:11;9.60;99.00
27978;DHT22;15314;49.248;6.968;2023-04-19T03:37:11;9.50;99.00
27978;DHT22;15314;49.248;6.968;2023-04-19T03:38:12;9.50;99.00
27978;DHT22;15314;49.248;6.968;2023-04-19T03:39:13;9.50;99.00
27978;DHT22;15314;49.248;6.968;2023-04-19T03:40:13;9.50;99.00
27978;DHT22;15314;49.248;6.968;2023-04-19T03:41:21;9.50;99.20
27978;DHT22;15314;49.248;6.968;2023-04-19T03:42:22;9.50;99.20
27978;DHT22;15314;49.248;6.968;2023-04-19T03:43:23;9.50;99.20
27978;DHT22;15314;49.248;6.968;2023-04-19T03:44:24;9.40;99.20
27978;DHT22;15314;49.248;6.968;2023-04-19T03:45:24;9.40;99.40
27978;DHT22;15314;49.248;6.968;2023-04-19T03:46:26;9.50;99.10
27978;DHT22;15314;49.248;6.968;2023-04-19T03:47:30;9.50;99.20
27978;DHT22;15314;49.248;6.968;2023-04-19T03:48:31;9.50;99.00
27978;DHT22;15314;49.248;6.968;2023-04-19T03:49:32;9.50;98.90
27978;DHT22;15314;49.248;6.968;2023-04-19T03:50:32;9.50;99.00
27978;DHT22;15314;49.248;6.968;2023-04-19T03:51:33;9.50;99.10
27978;DHT22;15314;49.248;6.968;2023-04-19T03:52:34;9.40;99.40
27978;DHT22;15314;49.248;6.968;2023-04-19T03:53:35;9.40;99.60
27978;DHT22;15314;49.248;6.968;2023-04-19T03:54:36;9.30;99.30
27978;DHT22;15314;49.248;6.968;2023-04-19T03:55:36;9.40;99.50
27978;DHT22;15314;49.248;6.968;2023-04-19T03:56:37;9.30;99.50
27978;DHT22;15314;49.248;6.968;2023-04-19T03:57:38;9.30;99.60
27978;DHT22;15314;49.248;6.968;2023-04-19T03:58:38;9.30;99.60
27978;DHT22;15314;49.248;6.968;2023-04-19T03:59:39;9.30;99.80
27978;DHT22;15314;49.248;6.968;2023-04-19T04:00:40;9.30;99.80
27978;DHT22;15314;49.248;6.968;2023-04-19T04:01:40;9.30;99.70
27978;DHT22;15314;49.248;6.968;2023-04-19T04:02:41;9.40;99.60
27978;DHT22;15314;49.248;6.968;2023-04-19T04:03:42;9.40;99.60
27978;DHT22;15314;49.248;6.968;2023-04-19T04:04:42;9.40;99.60
27978;DHT22;15314;49.248;6.968;2023-04-19T04:05:43;9.50;99.50
27978;DHT22;15314;49.248;6.968;2023-04-19T04:06:44;9.50;99.40
27978;DHT22;15314;49.248;6.968;2023-04-19T04:07:45;9.50;99.30
27978;DHT22;15314;49.248;6.968;2023-04-19T04:08:46;9.50;99.30
27978;DHT22;15314;49.248;6.968;2023-04-19T04:09:46;9.60;99.30
27978;DHT22;15314;49.248;6.968;2023-04-19T04:10:47;9.60;99.30
27978;DHT22;15314;49.248;6.968;2023-04-19T04:11:48;9.60;99.20
27978;DHT22;15314;49.248;6.968;2023-04-19T04:12:49;9.60;99.20
27978;DHT22;15314;49.248;6.968;2023-04-19T04:13:50;9.60;99.00
27978;DHT22;15314;49.248;6.968;2023-04-19T04:14:50;9.60;99.10
27978;DHT22;15314;49.248;6.968;2023-04-19T04:15:51;9.60;99.30
27978;DHT22;15314;49.248;6.968;2023-04-19T04:16:52;9.50;99.20
27978;DHT22;15314;49.248;6.968;2023-04-19T04:17:52;9.50;99.10
27978;DHT22;15314;49.248;6.968;2023-04-19T04:18:53;9.50;99.10
27978;DHT22;15314;49.248;6.968;2023-04-19T04:19:54;9.50;99.20
27978;DHT22;15314;49.248;6.968;2023-04-19T04:20:54;9.40;99.20
27978;DHT22;15314;49.248;6.968;2023-04-19T04:21:55;9.40;99.30
27978;DHT22;15314;49.248;6.968;2023-04-19T04:22:56;9.40;99.40
27978;DHT22;15314;49.248;6.968;2023-04-19T04:23:57;9.50;99.50
27978;DHT22;15314;49.248;6.968;2023-04-19T04:24:58;9.40;99.50
27978;DHT22;15314;49.248;6.968;2023-04-19T04:26:00;9.50;99.40
27978;DHT22;15314;49.248;6.968;2023-04-19T04:27:01;9.50;99.50
27978;DHT22;15314;49.248;6.968;2023-04-19T04:28:03;9.50;99.40
27978;DHT22;15314;49.248;6.968;2023-04-19T04:29:04;9.50;99.50
27978;DHT22;15314;49.248;6.968;2023-04-19T04:30:05;9.50;99.40
27978;DHT22;15314;49.248;6.968;2023-04-19T04:31:06;9.60;99.30
27978;DHT22;15314;49.248;6.968;2023-04-19T04:32:08;9.60;99.40
27978;DHT22;15314;49.248;6.968;2023-04-19T04:33:09;9.60;99.30
27978;DHT22;15314;49.248;6.968;2023-04-19T04:34:11;9.60;99.20
27978;DHT22;15314;49.248;6.968;2023-04-19T04:35:11;9.60;99.30
27978;DHT22;15314;49.248;6.968;2023-04-19T04:36:12;9.60;99.10
27978;DHT22;15314;49.248;6.968;2023-04-19T04:37:13;9.70;99.30
27978;DHT22;15314;49.248;6.968;2023-04-19T04:38:14;9.70;99.10
27978;DHT22;15314;49.248;6.968;2023-04-19T04:39:15;9.70;99.10
27978;DHT22;15314;49.248;6.968;2023-04-19T04:40:16;9.70;99.00
27978;DHT22;15314;49.248;6.968;2023-04-19T04:41:17;9.70;99.10
27978;DHT22;15314;49.248;6.968;2023-04-19T04:42:20;9.70;99.10
27978;DHT22;15314;49.248;6.968;2023-04-19T04:43:24;9.70;99.10
27978;DHT22;15314;49.248;6.968;2023-04-19T04:44:25;9.80;99.00
27978;DHT22;15314;49.248;6.968;2023-04-19T04:45:27;9.80;99.00
27978;DHT22;15314;49.248;6.968;2023-04-19T04:46:28;9.80;99.00
27978;DHT22;15314;49.248;6.968;2023-04-19T04:47:33;9.80;99.00
27978;DHT22;15314;49.248;6.968;2023-04-19T04:48:34;9.80;98.90
27978;DHT22;15314;49.248;6.968;2023-04-19T04:49:34;9.80;98.80
27978;DHT22;15314;49.248;6.968;2023-04-19T04:50:35;9.80;98.60
27978;DHT22;15314;49.248;6.968;2023-04-19T04:51:36;9.80;98.90
27978;DHT22;15314;49.248;6.968;2023-04-19T04:52:37;9.90;98.80
27978;DHT22;15314;49.248;6.968;2023-04-19T04:53:37;9.90;98.80
27978;DHT22;15314;49.248;6.968;2023-04-19T04:54:38;10.00;98.70
27978;DHT22;15314;49.248;6.968;2023-04-19T04:55:39;9.90;98.70
27978;DHT22;15314;49.248;6.968;2023-04-19T04:56:39;9.90;98.50
27978;DHT22;15314;49.248;6.968;2023-04-19T04:57:40;9.90;98.50
27978;DHT22;15314;49.248;6.968;2023-04-19T04:58:40;9.90;98.60
27978;DHT22;15314;49.248;6.968;2023-04-19T04:59:41;9.90;98.70
27978;DHT22;15314;49.248;6.968;2023-04-19T05:00:42;9.90;98.70
27978;DHT22;15314;49.248;6.968;2023-04-19T05:01:43;9.90;98.50
27978;DHT22;15314;49.248;6.968;2023-04-19T05:02:43;10.00;98.50
27978;DHT22;15314;49.248;6.968;2023-04-19T05:03:44;10.00;98.40
27978;DHT22;15314;49.248;6.968;2023-04-19T05:04:45;10.00;98.60
27978;DHT22;15314;49.248;6.968;2023-04-19T05:05:46;10.00;98.50
27978;DHT22;15314;49.248;6.968;2023-04-19T05:06:46;10.00;98.50
27978;DHT22;15314;49.248;6.968;2023-04-19T05:07:47;10.00;98.70
27978;DHT22;15314;49.248;6.968;2023-04-19T05:08:47;10.00;98.60
27978;DHT22;15314;49.248;6.968;2023-04-19T05:09:48;10.00;98.50
27978;DHT22;15314;49.248;6.968;2023-04-19T05:10:49;10.10;98.50
27978;DHT22;15314;49.248;6.968;2023-04-19T05:11:49;10.10;98.50
27978;DHT22;15314;49.248;6.968;2023-04-19T05:12:50;10.20;98.30
27978;DHT22;15314;49.248;6.968;2023-04-19T05:13:51;10.20;98.50
27978;DHT22;15314;49.248;6.968;2023-04-19T05:14:51;10.20;98.20
27978;DHT22;15314;49.248;6.968;2023-04-19T05:15:52;10.20;98.20
27978;DHT22;15314;49.248;6.968;2023-04-19T05:16:53;10.30;98.20
27978;DHT22;15314;49.248;6.968;2023-04-19T05:17:54;10.30;98.00
27978;DHT22;15314;49.248;6.968;2023-04-19T05:18:54;10.30;98.00
27978;DHT22;15314;49.248;6.968;2023-04-19T05:19:55;10.40;98.10
27978;DHT22;15314;49.248;6.968;2023-04-19T05:20:56;10.30;97.90
27978;DHT22;15314;49.248;6.968;2023-04-19T05:21:57;10.40;98.00
27978;DHT22;15314;49.248;6.968;2023-04-19T05:22:58;10.40;98.00
27978;DHT22;15314;49.248;6.968;2023-04-19T05:23:59;10.40;97.90
27978;DHT22;15314;49.248;6.968;2023-04-19T05:25:00;10.50;97.90
27978;DHT22;15314;49.248;6.968;2023-04-19T05:26:01;10.50;97.60
27978;DHT22;15314;49.248;6.968;2023-04-19T05:27:02;10.50;97.70
27978;DHT22;15314;49.248;6.968;2023-04-19T05:28:03;10.50;97.60
27978;DHT22;15314;49.248;6.968;2023-04-19T05:29:03;10.50;97.60
27978;DHT22;15314;49.248;6.968;2023-04-19T05:30:05;10.40;97.50
27978;DHT22;15314;49.248;6.968;2023-04-19T05:31:07;10.50;97.70
27978;DHT22;15314;49.248;6.968;2023-04-19T05:32:08;10.60;97.60
27978;DHT22;15314;49.248;6.968;2023-04-19T05:33:09;10.60;97.60
27978;DHT22;15314;49.248;6.968;2023-04-19T05:34:10;10.70;97.60
27978;DHT22;15314;49.248;6.968;2023-04-19T05:35:11;10.70;97.20
27978;DHT22;15314;49.248;6.968;2023-04-19T05:36:11;10.70;97.40
27978;DHT22;15314;49.248;6.968;2023-04-19T05:37:12;10.70;97.20
27978;DHT22;15314;49.248;6.968;2023-04-19T05:38:13;10.70;97.30
27978;DHT22;15314;49.248;6.968;2023-04-19T05:39:13;10.70;97.20
27978;DHT22;15314;49.248;6.968;2023-04-19T05:40:14;10.70;97.30
27978;DHT22;15314;49.248;6.968;2023-04-19T05:41:15;10.70;97.20
27978;DHT22;15314;49.248;6.968;2023-04-19T05:42:16;10.80;97.10
27978;DHT22;15314;49.248;6.968;2023-04-19T05:43:16;10.80;97.00
27978;DHT22;15314;49.248;6.968;2023-04-19T05:44:17;10.80;96.90
27978;DHT22;15314;49.248;6.968;2023-04-19T05:45:18;10.90;96.70
27978;DHT22;15314;49.248;6.968;2023-04-19T05:46:18;10.90;96.90
27978;DHT22;15314;49.248;6.968;2023-04-19T05:47:19;11.00;97.00
27978;DHT22;15314;49.248;6.968;2023-04-19T05:48:20;11.00;97.00
27978;DHT22;15314;49.248;6.968;2023-04-19T05:49:21;11.00;96.80
27978;DHT22;15314;49.248;6.968;2023-04-19T05:50:22;11.00;96.70
27978;DHT22;15314;49.248;6.968;2023-04-19T05:51:22;11.00;96.50
27978;DHT22;15314;49.248;6.968;2023-04-19T05:52:23;11.00;96.80
27978;DHT22;15314;49.248;6.968;2023-04-19T05:53:24;10.90;96.90
27978;DHT22;15314;49.248;6.968;2023-04-19T05:54:24;10.90;97.00
27978;DHT22;15314;49.248;6.968;2023-04-19T05:55:25;10.90;96.70
27978;DHT22;15314;49.248;6.968;2023-04-19T05:56:26;10.80;96.70
27978;DHT22;15314;49.248;6.968;2023-04-19T05:57:26;10.80;96.90
27978;DHT22;15314;49.248;6.968;2023-04-19T05:58:27;10.80;96.80
27978;DHT22;15314;49.248;6.968;2023-04-19T05:59:28;10.80;97.10
27978;DHT22;15314;49.248;6.968;2023-04-19T06:00:29;10.80;97.00
27978;DHT22;15314;49.248;6.968;2023-04-19T06:01:30;10.90;96.90
27978;DHT22;15314;49.248;6.968;2023-04-19T06:02:31;10.90;96.90
27978;DHT22;15314;49.248;6.968;2023-04-19T06:03:32;10.90;96.80
27978;DHT22;15314;49.248;6.968;2023-04-19T06:04:32;10.90;96.80
27978;DHT22;15314;49.248;6.968;2023-04-19T06:05:33;10.90;96.70
27978;DHT22;15314;49.248;6.968;2023-04-19T06:06:34;11.00;96.80
27978;DHT22;15314;49.248;6.968;2023-04-19T06:07:34;11.10;96.60
27978;DHT22;15314;49.248;6.968;2023-04-19T06:08:35;11.20;96.70
27978;DHT22;15314;49.248;6.968;2023-04-19T06:09:36;11.20;96.40
27978;DHT22;15314;49.248;6.968;2023-04-19T06:10:37;11.20;96.50
27978;DHT22;15314;49.248;6.968;2023-04-19T06:11:37;11.20;96.50
27978;DHT22;15314;49.248;6.968;2023-04-19T06:12:38;11.20;96.40
27978;DHT22;15314;49.248;6.968;2023-04-19T06:13:39;11.30;96.60
27978;DHT22;15314;49.248;6.968;2023-04-19T06:14:39;11.20;96.50
27978;DHT22;15314;49.248;6.968;2023-04-19T06:15:40;11.30;96.40
27978;DHT22;15314;49.248;6.968;2023-04-19T06:16:41;11.20;96.30
27978;DHT22;15314;49.248;6.968;2023-04-19T06:17:41;11.20;96.10
27978;DHT22;15314;49.248;6.968;2023-04-19T06:18:42;11.30;96.30
27978;DHT22;15314;49.248;6.968;2023-04-19T06:19:43;11.30;96.10
27978;DHT22;15314;49.248;6.968;2023-04-19T06:20:44;11.40;96.20
27978;DHT22;15314;49.248;6.968;2023-04-19T06:21:44;11.40;95.80
27978;DHT22;15314;49.248;6.968;2023-04-19T06:22:47;11.30;95.90
27978;DHT22;15314;49.248;6.968;2023-04-19T06:23:48;11.30;96.20
27978;DHT22;15314;49.248;6.968;2023-04-19T06:24:49;11.40;95.90
27978;DHT22;15314;49.248;6.968;2023-04-19T06:25:50;11.40;96.10
27978;DHT22;15314;49.248;6.968;2023-04-19T06:26:50;11.50;95.90